Flight Track Log - Related Links

Times and Time Zones

All times are in EDT time to prevent confusion due to time zone crossing. See the ASH2621 flight status page for this flight to view local times or setup timezone preferences in your user account.

Time Position Orientation Groundspeed Altitude Reporting Facility
EDT Latitude Longitude Course Direction KTS MPH feet Rate Location/Type
Sun 07:59:16 AM 35.1928 -80.9356 180° South 156 180 2,000  Level Atlanta Center
Sun 08:00:23 AM 35.1364 -80.9300 175° South 216 249 4,200 2,508 Climbing Atlanta Center
Sun 08:01:18 AM 35.0672 -80.9150 170° South 268 308 7,100 3,287 Climbing Atlanta Center
Sun 08:02:00 AM 34.8539 -80.8044 175° South  Level Estimated
Sun 08:02:18 AM 34.9875 -80.9028 173° South 279 321 10,500  Level Atlanta Center
Sun 08:03:00 AM 34.7639 -80.7684 180° South  Level Estimated
Sun 08:04:00 AM 34.6739 -80.7325 180° South  Level Estimated
Sun 08:04:04 AM 34.8367 -80.9019 180° South 337 388 14,600  Level Jacksonville Center
Sun 08:05:04 AM 34.7406 -80.8917 175° South 351 404 17,300 2,450 Climbing Jacksonville Center
Sun 08:06:04 AM 34.6403 -80.8789 174° South 356 410 19,500 2,200 Climbing Jacksonville Center
Sun 08:07:04 AM 34.5400 -80.8661 174° South 367 422 21,700 1,750 Climbing Jacksonville Center
Sun 08:08:04 AM 34.4311 -80.8511 174° South 379 436 23,000 650 Climbing Jacksonville Center
Sun 08:09:04 AM 34.3203 -80.8358 174° South 399 459 23,000  Level Jacksonville Center
Sun 08:10:04 AM 34.2178 -80.8133 170° South 394 453 23,000  Level Jacksonville Center
Sun 08:11:04 AM 34.1069 -80.7958 173° South 394 453 23,000 -950 Level Jacksonville Center
Sun 08:12:04 AM 33.9961 -80.7836 175° South 394 453 21,100 -1,700 Descending Jacksonville Center
Sun 08:13:04 AM 33.8875 -80.7686 173° South 394 453 19,600 -1,550 Descending Jacksonville Center
Sun 08:14:04 AM 33.7828 -80.7536 173° South 389 448 18,000 -1,500 Descending Jacksonville Center
Sun 08:15:04 AM 33.6825 -80.7386 173° South 383 441 16,600 -1,500 Descending Jacksonville Center
Sun 08:16:04 AM 33.5819 -80.7236 173° South 377 434 15,000 -1,400 Descending Jacksonville Center
Sun 08:17:04 AM 33.4817 -80.7111 174° South 366 421 13,800 -1,250 Descending Jacksonville Center
Sun 08:18:04 AM 33.3853 -80.6986 174° South 366 421 12,500 -1,300 Descending Jacksonville Center
Sun 08:19:04 AM 33.2911 -80.6858 174° South 355 409 11,200 -1,300 Descending Jacksonville Center
Sun 08:20:04 AM 33.2150 -80.6308 149° Southeast 328 377 9,900 -1,150 Descending Jacksonville Center
Sun 08:21:04 AM 33.1822 -80.5397 113° Southeast 284 327 8,900 -1,400 Descending Jacksonville Center
Sun 08:22:04 AM 33.1267 -80.4742 135° Southeast 284 327 7,100 -1,750 Descending Jacksonville Center
Sun 08:23:04 AM 33.0775 -80.4186 137° Southeast 279 321 5,400 -1,350 Descending Jacksonville Center
Sun 08:24:04 AM 33.0264 -80.3581 135° Southeast 269 310 4,400 -800 Descending Jacksonville Center
Sun 08:25:04 AM 32.9853 -80.2897 126° Southeast 264 304 3,800 -1,050 Descending Jacksonville Center
Sun 08:26:04 AM 32.9422 -80.2292 130° Southeast 251 289 2,300 -1,100 Descending Jacksonville Center
Sun 08:27:04 AM 32.8933 -80.1886 145° Southeast 229 264 1,600 -700 Descending Jacksonville Center

Login

Don't have an account? Register now (free) for customized features, flight alerts, and more!